Overview Statistics Trail Chart Weather Telemetry Raw packets
 

This is the latest recevied weather packets stored in our database for station/object IZ1HMT-3. If no packets are shown the sender has not sent any weather packets the latest 10 day(s).

<< 20 21 22 23 24 25 26 >>
Time Temp. Humidity Pressure Rain* Wind** Luminosity Snow
1787989936 38.89° C 28% 1014.3 hPa - - - -
1787989331 38.33° C 27% 1014.3 hPa - - - -
1787988727 38.33° C 28% 1014.1 hPa - - - -
1787988123 37.78° C 28% 1014.2 hPa - - - -
1787987518 37.78° C 29% 1014.1 hPa - - - -
1787986914 36.67° C 28% 1014.1 hPa - - - -
1787986309 33.33° C 36% 1014.2 hPa - - - -
1787953799 28.89° C 58% 1013 hPa - - - -
1787953194 28.89° C 57% 1012.8 hPa - - - -
1787952588 28.89° C 59% 1012.6 hPa - - - -
1787951983 28.89° C 61% 1012.7 hPa - - - -
1787949563 29.44° C 65% 1012.6 hPa - - - -
1787948958 29.44° C 66% 1012.8 hPa - - - -
1787947747 29.44° C 65% 1013.1 hPa - - - -
1787947142 30° C 62% 1013.2 hPa - - - -
1787946537 30° C 59% 1013.2 hPa - - - -
1787944721 30.56° C 50% 1012.6 hPa - - - -
1787944115 30.56° C 51% 1012.6 hPa - - - -
1787943511 30.56° C 52% 1012.4 hPa - - - -
1787942905 30.56° C 53% 1012.5 hPa - - - -
1787941694 30.56° C 59% 1012.7 hPa - - - -
1787941088 30.56° C 60% 1012.9 hPa - - - -
1787940482 30.56° C 61% 1013.1 hPa - - - -
1787939877 30.56° C 61% 1012.5 hPa - - - -
1787938667 31.11° C 61% 1012.8 hPa - - - -

* Rain since midnight (hover to see other rain measurements)
** Current wind speed in m/s (hover to see current wind gust speed)